createdAt,value
2023-05-11T00:01:13.267Z,96537.19
2023-05-11T00:03:40.098Z,96525.00
2023-05-11T00:06:07.126Z,96529.38
2023-05-11T00:08:33.970Z,96534.84
2023-05-11T00:11:03.551Z,96525.28
2023-05-11T00:13:30.294Z,96533.00
2023-05-11T00:15:57.009Z,96527.44
2023-05-11T00:18:23.833Z,96540.06
2023-05-11T00:20:50.591Z,96538.22
2023-05-11T00:23:17.309Z,96539.63
2023-05-11T00:25:43.954Z,96533.81
2023-05-11T00:28:10.858Z,96533.00
2023-05-11T00:30:37.653Z,96540.47
2023-05-11T00:33:04.520Z,96546.34
2023-05-11T00:35:32.133Z,96534.41
2023-05-11T00:37:59.268Z,96534.50
2023-05-11T00:40:26.538Z,96536.81
2023-05-11T00:42:53.232Z,96539.78
2023-05-11T00:45:20.030Z,96537.56
2023-05-11T00:47:47.000Z,96532.56
2023-05-11T00:50:14.021Z,96542.72
2023-05-11T00:52:41.799Z,96549.22
2023-05-11T00:55:08.961Z,96538.69
2023-05-11T00:57:36.384Z,96534.44
2023-05-11T01:00:04.823Z,96524.19
2023-05-11T01:02:32.162Z,96524.03
2023-05-11T01:05:00.196Z,96528.41
2023-05-11T01:07:34.422Z,96532.13
2023-05-11T01:10:11.031Z,96533.31
2023-05-11T01:12:49.774Z,96540.59
2023-05-11T01:15:30.455Z,96542.25
2023-05-11T01:18:13.190Z,96543.50
2023-05-11T01:20:44.647Z,96546.09
2023-05-11T01:23:27.696Z,96542.03
2023-05-11T01:26:11.798Z,96543.56
2023-05-11T01:29:07.041Z,96539.22
2023-05-11T01:31:35.024Z,96559.63
2023-05-11T01:34:06.532Z,96563.22
2023-05-11T01:36:36.826Z,96556.28
2023-05-11T01:39:10.733Z,96551.78
2023-05-11T01:41:38.636Z,96548.22
2023-05-11T01:44:09.712Z,96545.03
2023-05-11T01:46:36.862Z,96535.44
2023-05-11T01:49:10.151Z,96531.78
2023-05-11T01:51:38.835Z,96502.44
2023-05-11T01:54:08.343Z,96502.19
2023-05-11T01:56:36.583Z,96503.19
2023-05-11T01:59:04.098Z,96498.41
2023-05-11T02:01:32.393Z,96500.56
2023-05-11T02:04:02.223Z,96494.94
2023-05-11T02:06:30.626Z,96489.19
2023-05-11T02:08:59.761Z,96497.66
2023-05-11T02:11:29.301Z,96499.72
2023-05-11T02:13:58.707Z,96493.88
2023-05-11T02:16:28.372Z,96488.31
2023-05-11T02:18:57.437Z,96470.16
2023-05-11T02:21:27.156Z,96465.50
2023-05-11T02:23:54.964Z,96466.69
2023-05-11T02:26:22.662Z,96467.22
2023-05-11T02:28:49.885Z,96456.97
2023-05-11T02:31:19.719Z,96455.44
2023-05-11T02:33:51.559Z,96457.47
2023-05-11T02:36:21.854Z,96459.88
2023-05-11T02:38:51.335Z,96452.06
2023-05-11T02:41:24.703Z,96454.59
2023-05-11T02:43:54.337Z,96460.59
2023-05-11T02:46:26.160Z,96451.31
2023-05-11T02:48:56.527Z,96449.78
2023-05-11T02:51:32.006Z,96449.59
2023-05-11T02:53:59.472Z,96449.69
2023-05-11T02:56:29.897Z,96434.22
2023-05-11T02:58:57.265Z,96442.25
2023-05-11T03:01:28.096Z,96444.59
2023-05-11T03:03:57.183Z,96443.28
2023-05-11T03:06:25.970Z,96435.91
2023-05-11T03:08:52.886Z,96430.53
2023-05-11T03:11:21.655Z,96434.22
2023-05-11T03:13:50.261Z,96434.75
2023-05-11T03:16:21.033Z,96437.84
2023-05-11T03:18:49.650Z,96439.38
2023-05-11T03:21:21.600Z,96439.69
2023-05-11T03:23:49.498Z,96441.09
2023-05-11T03:26:18.979Z,96439.13
2023-05-11T03:28:47.275Z,96447.25
2023-05-11T03:31:14.505Z,96446.38
2023-05-11T03:33:41.413Z,96446.38
2023-05-11T03:36:11.434Z,96447.66
2023-05-11T03:38:39.278Z,96454.16
2023-05-11T03:41:08.463Z,96447.13
2023-05-11T03:43:38.866Z,96461.81
2023-05-11T03:46:07.270Z,96454.66
2023-05-11T03:48:34.752Z,96444.59
2023-05-11T03:51:01.762Z,96445.03
2023-05-11T03:53:28.717Z,96444.28
2023-05-11T03:55:55.919Z,96451.06
2023-05-11T03:58:23.416Z,96444.38
2023-05-11T04:00:51.213Z,96457.00
2023-05-11T04:03:18.337Z,96458.63
2023-05-11T04:05:45.211Z,96458.31
2023-05-11T04:08:13.198Z,96452.69
2023-05-11T04:10:39.860Z,96454.50
2023-05-11T04:13:06.610Z,96461.09
2023-05-11T04:15:33.482Z,96466.88
2023-05-11T04:18:00.372Z,96477.84
2023-05-11T04:20:27.290Z,96477.75
2023-05-11T04:22:54.028Z,96480.97
2023-05-11T04:25:20.728Z,96477.84
2023-05-11T04:27:47.498Z,96474.94
2023-05-11T04:30:14.399Z,96485.78
2023-05-11T04:32:41.155Z,96481.31
2023-05-11T04:35:09.568Z,96477.34
2023-05-11T04:37:38.419Z,96467.84
2023-05-11T04:40:07.882Z,96461.50
2023-05-11T04:42:39.904Z,96464.53
2023-05-11T04:45:10.443Z,96455.03
2023-05-11T04:47:37.637Z,96459.88
2023-05-11T04:50:05.973Z,96446.81
2023-05-11T04:52:34.749Z,96441.09
2023-05-11T04:55:01.875Z,96437.09
2023-05-11T04:57:28.815Z,96437.25
2023-05-11T04:59:56.091Z,96437.56
2023-05-11T05:02:22.915Z,96436.28
2023-05-11T05:04:50.390Z,96435.84
2023-05-11T05:07:17.086Z,96433.16
2023-05-11T05:09:45.295Z,96441.03
2023-05-11T05:12:13.971Z,96447.19
2023-05-11T05:14:40.757Z,96462.78
2023-05-11T05:17:07.799Z,96473.84
2023-05-11T05:19:34.945Z,96481.59
2023-05-11T05:22:01.997Z,96492.53
2023-05-11T05:24:30.457Z,96499.47
2023-05-11T05:26:57.558Z,96524.28
2023-05-11T05:29:24.246Z,96523.69
2023-05-11T05:31:51.269Z,96543.94
2023-05-11T05:34:19.018Z,96558.34
2023-05-11T05:36:45.796Z,96561.69
2023-05-11T05:39:13.663Z,96592.56
2023-05-11T05:41:42.641Z,96598.28
2023-05-11T05:44:10.176Z,96606.50
2023-05-11T05:46:37.847Z,96618.53
2023-05-11T05:49:04.839Z,96616.47
2023-05-11T05:51:32.857Z,96629.44
2023-05-11T05:53:59.628Z,96644.63
2023-05-11T05:56:27.218Z,96654.00
2023-05-11T05:58:53.997Z,96634.88
2023-05-11T06:01:20.815Z,96642.06
2023-05-11T06:03:47.898Z,96652.66
2023-05-11T06:06:14.748Z,96669.06
2023-05-11T06:08:41.457Z,96689.13
2023-05-11T06:11:08.193Z,96705.53
2023-05-11T06:13:35.058Z,96722.13
2023-05-11T06:16:02.262Z,96727.19
2023-05-11T06:18:32.826Z,96753.38
2023-05-11T06:21:01.921Z,96761.28
2023-05-11T06:23:30.977Z,96786.34
2023-05-11T06:25:57.801Z,96803.16
2023-05-11T06:28:25.788Z,96810.44
2023-05-11T06:31:00.324Z,96828.81
2023-05-11T06:33:31.582Z,96838.88
2023-05-11T06:35:59.215Z,96845.16
2023-05-11T06:38:28.776Z,96850.56
2023-05-11T06:40:56.592Z,96855.78
2023-05-11T06:43:23.497Z,96860.69
2023-05-11T06:45:52.955Z,96872.28
2023-05-11T06:48:23.637Z,96865.41
2023-05-11T06:50:50.449Z,96873.06
2023-05-11T06:53:18.186Z,96881.66
2023-05-11T06:55:45.112Z,96866.75
2023-05-11T06:58:12.049Z,96873.69
2023-05-11T07:00:39.219Z,96886.16
2023-05-11T07:03:06.693Z,96889.22
2023-05-11T07:05:33.521Z,96895.34
2023-05-11T07:08:00.237Z,96903.53
2023-05-11T07:10:27.076Z,96917.34
2023-05-11T07:12:53.798Z,96928.44
2023-05-11T07:15:20.962Z,96937.16
2023-05-11T07:17:48.053Z,96952.47
2023-05-11T07:20:15.008Z,96965.16
2023-05-11T07:22:41.974Z,96968.31
2023-05-11T07:25:12.063Z,96979.41
2023-05-11T07:27:39.028Z,96985.22
2023-05-11T07:30:06.299Z,97004.09
2023-05-11T07:32:33.020Z,97007.34
2023-05-11T07:34:59.772Z,97020.28
2023-05-11T07:37:26.410Z,97023.09
2023-05-11T07:39:54.473Z,97022.13
2023-05-11T07:42:21.343Z,97005.06
2023-05-11T07:44:48.103Z,97038.19
2023-05-11T07:47:14.987Z,97062.84
2023-05-11T07:49:43.978Z,97081.53
2023-05-11T07:52:11.896Z,97080.44
2023-05-11T07:54:40.366Z,97088.78
2023-05-11T07:57:07.942Z,97081.94
2023-05-11T07:59:34.832Z,97089.09
2023-05-11T08:02:01.555Z,97109.69
2023-05-11T08:04:28.452Z,97106.41
2023-05-11T08:06:55.187Z,97125.44
2023-05-11T08:09:22.590Z,97128.59
2023-05-11T08:11:50.081Z,97132.69
2023-05-11T08:14:20.240Z,97141.81
2023-05-11T08:16:47.044Z,97169.44
2023-05-11T08:19:13.882Z,97194.41
2023-05-11T08:21:40.696Z,97195.66
2023-05-11T08:24:07.858Z,97201.28
2023-05-11T08:26:34.742Z,97215.91
2023-05-11T08:29:01.478Z,97196.94
2023-05-11T08:31:28.286Z,97207.25
2023-05-11T08:33:55.143Z,97221.53
2023-05-11T08:36:22.182Z,97223.25
2023-05-11T08:38:48.996Z,97228.97
2023-05-11T08:41:15.744Z,97242.38
2023-05-11T08:43:43.774Z,97238.00
2023-05-11T08:46:11.486Z,97257.00
2023-05-11T08:48:38.350Z,97271.09
2023-05-11T08:51:05.336Z,97249.84
2023-05-11T08:53:32.451Z,97285.75
2023-05-11T08:56:01.495Z,97314.63
2023-05-11T08:58:28.400Z,97307.34
2023-05-11T09:00:55.969Z,97311.06
2023-05-11T09:03:22.994Z,97321.03
2023-05-11T09:05:50.272Z,97343.28
2023-05-11T09:08:19.034Z,97363.28
2023-05-11T09:10:46.128Z,97355.84
2023-05-11T09:13:13.064Z,97395.75
2023-05-11T09:15:39.787Z,97439.31
2023-05-11T09:18:07.228Z,97442.94
2023-05-11T09:20:34.730Z,97444.41
2023-05-11T09:23:01.985Z,97461.88
2023-05-11T09:25:35.189Z,97472.72
2023-05-11T09:28:02.142Z,97449.59
2023-05-11T09:30:28.952Z,97395.56
2023-05-11T09:32:58.548Z,97438.09
2023-05-11T09:35:28.869Z,97449.91
2023-05-11T09:38:09.896Z,97464.34
2023-05-11T09:40:39.885Z,97462.91
2023-05-11T09:43:18.315Z,97450.16
2023-05-11T09:45:47.605Z,97454.91
2023-05-11T09:48:17.427Z,97433.63
2023-05-11T09:50:44.192Z,97462.00
2023-05-11T09:53:11.259Z,97480.59
2023-05-11T09:55:38.256Z,97468.00
2023-05-11T09:58:05.061Z,97489.44
2023-05-11T10:00:32.405Z,97507.03
2023-05-11T10:03:00.603Z,97487.28
2023-05-11T10:05:27.502Z,97468.78
2023-05-11T10:08:01.652Z,97506.66
2023-05-11T10:10:30.890Z,97515.44
2023-05-11T10:13:02.381Z,97553.94
2023-05-11T10:15:32.412Z,97549.88
2023-05-11T10:18:02.416Z,97534.69
2023-05-11T10:20:29.316Z,97551.59
2023-05-11T10:22:56.331Z,97569.63
2023-05-11T10:25:24.137Z,97556.38
2023-05-11T10:27:51.998Z,97595.56
2023-05-11T10:30:19.164Z,97593.00
2023-05-11T10:32:49.481Z,97598.03
2023-05-11T10:35:16.495Z,97587.59
2023-05-11T10:37:43.539Z,97608.16
2023-05-11T10:40:11.526Z,97603.84
2023-05-11T10:42:47.342Z,97623.47
2023-05-11T10:45:32.088Z,97638.88
2023-05-11T10:48:32.744Z,97620.06
2023-05-11T10:51:24.164Z,97632.00
2023-05-11T10:54:06.763Z,97644.13
2023-05-11T10:57:07.260Z,97656.66
2023-05-11T10:59:42.214Z,97671.72
2023-05-11T11:02:09.337Z,97670.19
2023-05-11T11:04:44.731Z,97640.84
2023-05-11T11:07:13.434Z,97676.94
2023-05-11T11:10:09.283Z,97702.31
2023-05-11T11:12:36.034Z,97706.78
2023-05-11T11:15:08.194Z,97720.09
2023-05-11T11:17:36.582Z,97683.44
2023-05-11T11:20:07.838Z,97647.09
2023-05-11T11:22:34.506Z,97701.72
2023-05-11T11:25:02.497Z,97697.06
2023-05-11T11:27:41.461Z,97712.94
2023-05-11T11:30:21.583Z,97709.34
2023-05-11T11:32:50.987Z,97715.03
2023-05-11T11:35:39.717Z,97703.88
2023-05-11T11:38:08.252Z,97707.59
2023-05-11T11:40:49.573Z,97680.84
2023-05-11T11:43:20.208Z,97720.34
2023-05-11T11:45:54.697Z,97702.91
2023-05-11T11:48:36.139Z,97686.97
2023-05-11T11:51:08.674Z,97676.84
2023-05-11T11:53:38.533Z,97659.97
2023-05-11T11:56:29.319Z,97646.94
2023-05-11T11:58:56.007Z,97664.25
2023-05-11T12:01:26.792Z,97689.06
2023-05-11T12:04:18.578Z,97704.84
2023-05-11T12:06:48.722Z,97717.56
2023-05-11T12:09:19.265Z,97701.75
2023-05-11T12:11:48.056Z,97704.94
2023-05-11T12:14:15.642Z,97703.03
2023-05-11T12:16:42.463Z,97695.69
2023-05-11T12:19:09.394Z,97678.78
2023-05-11T12:21:36.193Z,97686.75
2023-05-11T12:24:05.327Z,97694.75
2023-05-11T12:26:33.432Z,97679.88
2023-05-11T12:29:13.860Z,97672.63
2023-05-11T12:31:45.431Z,97676.41
2023-05-11T12:34:16.524Z,97656.34
2023-05-11T12:36:45.362Z,97642.97
2023-05-11T12:39:19.126Z,97654.75
2023-05-11T12:41:47.238Z,97650.97
2023-05-11T12:44:15.841Z,97631.34
2023-05-11T12:46:42.732Z,97678.78
2023-05-11T12:49:10.791Z,97678.00
2023-05-11T12:51:50.856Z,97659.16
2023-05-11T12:54:35.285Z,97649.53
2023-05-11T12:57:03.082Z,97648.56
2023-05-11T12:59:34.766Z,97594.84
2023-05-11T13:02:19.143Z,97645.88
2023-05-11T13:04:47.105Z,97632.91
2023-05-11T13:07:24.862Z,97623.53
2023-05-11T13:09:59.355Z,97647.78
2023-05-11T13:12:26.865Z,97641.69
2023-05-11T13:15:13.030Z,97616.84
2023-05-11T13:17:42.593Z,97613.25
2023-05-11T13:20:27.368Z,97598.13
2023-05-11T13:23:07.226Z,97602.81
2023-05-11T13:25:50.542Z,97616.97
2023-05-11T13:28:20.254Z,97586.84
2023-05-11T13:30:47.262Z,97595.25
2023-05-11T13:33:14.161Z,97583.69
2023-05-11T13:35:41.942Z,97576.56
2023-05-11T13:38:12.207Z,97554.03
2023-05-11T13:40:39.418Z,97559.41
2023-05-11T13:43:06.790Z,97553.81
2023-05-11T13:45:33.496Z,97524.25
2023-05-11T13:48:00.276Z,97534.91
2023-05-11T13:50:27.086Z,97512.66
2023-05-11T13:52:54.298Z,97498.66
2023-05-11T13:55:21.670Z,97526.78
2023-05-11T13:57:48.560Z,97511.44
2023-05-11T14:00:15.764Z,97506.88
2023-05-11T14:02:44.301Z,97502.16
2023-05-11T14:05:11.096Z,97480.41
2023-05-11T14:07:47.033Z,97488.81
2023-05-11T14:10:15.527Z,97445.75
2023-05-11T14:12:42.401Z,97475.84
2023-05-11T14:15:09.685Z,97412.47
2023-05-11T14:17:36.661Z,97428.59
2023-05-11T14:20:04.232Z,97423.59
2023-05-11T14:22:31.022Z,97420.41
2023-05-11T14:24:57.765Z,97445.28
2023-05-11T14:27:24.457Z,97414.31
2023-05-11T14:29:52.397Z,97395.09
2023-05-11T14:32:19.743Z,97381.41
2023-05-11T14:34:47.885Z,97397.09
2023-05-11T14:37:14.723Z,97377.88
2023-05-11T14:39:41.640Z,97380.03
2023-05-11T14:42:09.040Z,97365.28
2023-05-11T14:44:35.829Z,97323.94
2023-05-11T14:47:02.644Z,97337.13
2023-05-11T14:49:29.594Z,97314.78
2023-05-11T14:51:57.825Z,97333.56
2023-05-11T14:54:24.532Z,97313.56
2023-05-11T14:56:56.629Z,97303.06
2023-05-11T14:59:27.090Z,97302.94
2023-05-11T15:01:53.931Z,97285.88
2023-05-11T15:04:20.942Z,97267.69
2023-05-11T15:06:48.041Z,97201.41
2023-05-11T15:09:15.005Z,97226.53
2023-05-11T15:11:41.872Z,97229.31
2023-05-11T15:14:08.774Z,97246.91
2023-05-11T15:16:35.651Z,97220.75
2023-05-11T15:19:02.488Z,97215.72
2023-05-11T15:21:29.192Z,97227.75
2023-05-11T15:23:55.977Z,97206.38
2023-05-11T15:26:22.988Z,97195.19
2023-05-11T15:28:50.095Z,97190.22
2023-05-11T15:31:16.959Z,97116.53
2023-05-11T15:33:44.632Z,97157.81
2023-05-11T15:36:15.257Z,97157.56
2023-05-11T15:38:42.900Z,97134.63
2023-05-11T15:41:09.695Z,97069.38
2023-05-11T15:43:36.461Z,97044.72
2023-05-11T15:46:07.662Z,97091.09
2023-05-11T15:48:34.446Z,97054.59
2023-05-11T15:51:01.511Z,97035.13
2023-05-11T15:53:28.436Z,97032.16
2023-05-11T15:55:55.871Z,97020.28
2023-05-11T15:58:23.225Z,96982.63
2023-05-11T16:00:50.079Z,96947.69
2023-05-11T16:03:17.475Z,96961.03
2023-05-11T16:05:44.981Z,96965.81
2023-05-11T16:08:12.229Z,96991.59
2023-05-11T16:10:39.212Z,97009.50
2023-05-11T16:13:05.951Z,97026.94
2023-05-11T16:15:33.217Z,97032.63
2023-05-11T16:18:03.034Z,97017.72
2023-05-11T16:20:31.574Z,97021.53
2023-05-11T16:22:58.240Z,96991.06
2023-05-11T16:25:25.022Z,96951.28
2023-05-11T16:27:51.757Z,96907.38
2023-05-11T16:30:24.857Z,96825.50
2023-05-11T16:32:52.328Z,96781.50
2023-05-11T16:35:19.287Z,96700.81
2023-05-11T16:37:48.080Z,96667.88
2023-05-11T16:40:18.452Z,96668.81
2023-05-11T16:42:47.022Z,96651.72
2023-05-11T16:45:13.831Z,96652.06
2023-05-11T16:47:40.574Z,96654.59
2023-05-11T16:50:07.500Z,96659.56
2023-05-11T16:52:34.420Z,96699.09
2023-05-11T16:55:01.102Z,96723.59
2023-05-11T16:57:27.788Z,96762.28
2023-05-11T16:59:54.604Z,96781.34
2023-05-11T17:02:21.390Z,96838.38
2023-05-11T17:04:48.275Z,96895.63
2023-05-11T17:07:15.908Z,96910.75
2023-05-11T17:09:43.137Z,96908.16
2023-05-11T17:12:13.201Z,96943.47
2023-05-11T17:14:39.840Z,96935.06
2023-05-11T17:17:08.229Z,96900.09
2023-05-11T17:19:34.938Z,96858.31
2023-05-11T17:22:01.670Z,96841.16
2023-05-11T17:24:28.762Z,96846.38
2023-05-11T17:26:55.689Z,96862.09
2023-05-11T17:29:22.587Z,96856.38
2023-05-11T17:31:51.899Z,96832.19
2023-05-11T17:34:20.479Z,96805.00
2023-05-11T17:36:48.294Z,96786.63
2023-05-11T17:39:16.545Z,96768.63
2023-05-11T17:41:43.603Z,96775.94
2023-05-11T17:44:10.459Z,96775.44
2023-05-11T17:46:37.167Z,96773.53
2023-05-11T17:49:04.288Z,96781.78
2023-05-11T17:51:31.380Z,96768.56
2023-05-11T17:53:58.110Z,96770.91
2023-05-11T17:56:24.794Z,96768.50
2023-05-11T17:58:54.271Z,96767.94
2023-05-11T18:01:22.871Z,96783.22
2023-05-11T18:03:49.896Z,96805.56
2023-05-11T18:06:17.299Z,96804.41
2023-05-11T18:08:44.161Z,96775.75
2023-05-11T18:11:12.964Z,96767.56
2023-05-11T18:13:41.390Z,96764.97
2023-05-11T18:16:09.446Z,96760.44
2023-05-11T18:18:37.001Z,96747.38
2023-05-11T18:21:07.526Z,96743.41
2023-05-11T18:23:34.459Z,96746.81
2023-05-11T18:26:01.320Z,96731.78
2023-05-11T18:28:28.273Z,96728.84
2023-05-11T18:30:55.055Z,96730.19
2023-05-11T18:33:22.005Z,96720.22
2023-05-11T18:35:50.819Z,96713.31
2023-05-11T18:38:17.672Z,96711.81
2023-05-11T18:40:45.030Z,96715.53
2023-05-11T18:43:11.936Z,96719.66
2023-05-11T18:45:41.104Z,96723.25
2023-05-11T18:48:08.131Z,96726.34
2023-05-11T18:50:34.943Z,96735.56
2023-05-11T18:53:02.312Z,96729.66
2023-05-11T18:55:31.260Z,96724.53
2023-05-11T18:58:02.403Z,96721.75
2023-05-11T19:00:29.124Z,96709.78
2023-05-11T19:02:56.257Z,96705.31
2023-05-11T19:05:23.053Z,96692.53
2023-05-11T19:07:49.818Z,96687.94
2023-05-11T19:10:18.297Z,96682.44
2023-05-11T19:12:45.172Z,96676.78
2023-05-11T19:15:11.946Z,96673.50
2023-05-11T19:17:38.939Z,96672.09
2023-05-11T19:20:06.653Z,96674.44
2023-05-11T19:22:33.893Z,96674.38
2023-05-11T19:25:01.278Z,96665.72
2023-05-11T19:27:28.182Z,96660.16
2023-05-11T19:29:54.886Z,96658.91
2023-05-11T19:32:23.450Z,96651.13
2023-05-11T19:34:50.355Z,96658.28
2023-05-11T19:37:17.102Z,96649.38
2023-05-11T19:39:44.346Z,96643.31
2023-05-11T19:42:11.624Z,96649.66
2023-05-11T19:44:43.525Z,96644.91
2023-05-11T19:47:10.820Z,96651.13
2023-05-11T19:49:37.593Z,96652.94
2023-05-11T19:52:04.493Z,96649.56
2023-05-11T19:54:31.166Z,96659.66
2023-05-11T19:56:59.904Z,96650.31
2023-05-11T19:59:32.968Z,96657.66
2023-05-11T20:02:00.971Z,96645.56
2023-05-11T20:04:28.417Z,96643.13
2023-05-11T20:06:56.321Z,96644.63
2023-05-11T20:09:24.875Z,96637.59
2023-05-11T20:11:51.525Z,96642.75
2023-05-11T20:14:18.279Z,96638.66
2023-05-11T20:16:45.112Z,96642.00
2023-05-11T20:19:12.034Z,96631.47
2023-05-11T20:21:38.785Z,96631.09
2023-05-11T20:24:05.712Z,96637.22
2023-05-11T20:26:32.572Z,96637.47
2023-05-11T20:28:59.212Z,96631.88
2023-05-11T20:31:27.246Z,96629.44
2023-05-11T20:36:23.662Z,96602.84
2023-05-11T20:38:53.826Z,96590.09
2023-05-11T20:41:22.221Z,96574.66
2023-05-11T20:43:48.914Z,96556.09
2023-05-11T20:46:15.865Z,96549.78
2023-05-11T20:48:45.592Z,96538.16
2023-05-11T20:51:14.812Z,96536.06
2023-05-11T20:53:41.604Z,96527.72
2023-05-11T20:56:10.248Z,96531.34
2023-05-11T20:58:36.982Z,96518.56
2023-05-11T21:01:03.793Z,96522.41
2023-05-11T21:03:30.580Z,96517.72
2023-05-11T21:05:57.348Z,96517.25
2023-05-11T21:08:24.063Z,96509.75
2023-05-11T21:10:50.773Z,96500.97
2023-05-11T21:13:17.588Z,96496.94
2023-05-11T21:15:44.285Z,96507.16
2023-05-11T21:18:11.141Z,96514.56
2023-05-11T21:20:38.071Z,96512.75
2023-05-11T21:23:04.888Z,96528.41
2023-05-11T21:25:31.626Z,96540.25
2023-05-11T21:27:58.409Z,96535.44
2023-05-11T21:30:25.147Z,96533.94
2023-05-11T21:32:52.084Z,96543.28
2023-05-11T21:35:18.909Z,96539.56
2023-05-11T21:37:49.679Z,96539.56
2023-05-11T21:40:17.808Z,96531.34
2023-05-11T21:42:45.129Z,96534.00
2023-05-11T21:45:12.352Z,96538.13
2023-05-11T21:47:39.659Z,96536.94
2023-05-11T21:50:08.770Z,96541.88
2023-05-11T21:52:36.943Z,96523.59
2023-05-11T21:55:04.406Z,96514.22
2023-05-11T21:57:31.192Z,96524.94
2023-05-11T21:59:57.838Z,96523.97
2023-05-11T22:02:24.591Z,96510.03
2023-05-11T22:04:51.399Z,96483.31
2023-05-11T22:07:18.331Z,96484.81
2023-05-11T22:09:45.066Z,96473.28
2023-05-11T22:12:12.080Z,96464.78
2023-05-11T22:14:38.787Z,96463.97
2023-05-11T22:17:05.723Z,96465.41
2023-05-11T22:19:33.084Z,96474.47
2023-05-11T22:21:59.844Z,96479.63
2023-05-11T22:24:27.372Z,96475.50
2023-05-11T22:26:54.828Z,96475.16
2023-05-11T22:29:22.030Z,96482.59
2023-05-11T22:31:49.487Z,96483.78
2023-05-11T22:34:16.414Z,96490.91
2023-05-11T22:36:43.245Z,96488.59
2023-05-11T22:39:11.512Z,96496.81
2023-05-11T22:41:38.505Z,96502.75
2023-05-11T22:44:05.525Z,96506.06
2023-05-11T22:46:32.218Z,96506.72
2023-05-11T22:48:58.879Z,96499.41
2023-05-11T22:51:25.632Z,96511.75
2023-05-11T22:53:52.397Z,96508.78
2023-05-11T22:56:19.261Z,96513.59
2023-05-11T22:58:46.208Z,96512.78
2023-05-11T23:01:13.066Z,96513.53
2023-05-11T23:03:40.361Z,96510.56
2023-05-11T23:06:07.247Z,96513.25
2023-05-11T23:08:33.877Z,96513.94
2023-05-11T23:11:00.554Z,96516.81
2023-05-11T23:13:27.684Z,96511.72
2023-05-11T23:15:54.345Z,96502.44
2023-05-11T23:18:21.389Z,96504.38
2023-05-11T23:20:48.288Z,96494.44
2023-05-11T23:23:14.967Z,96499.91
2023-05-11T23:25:45.634Z,96491.19
2023-05-11T23:28:12.330Z,96482.84
2023-05-11T23:30:39.115Z,96486.13
2023-05-11T23:33:05.877Z,96478.56
2023-05-11T23:35:32.938Z,96481.94
2023-05-11T23:37:59.808Z,96467.31
2023-05-11T23:40:28.526Z,96466.16
2023-05-11T23:42:55.291Z,96451.31
2023-05-11T23:45:23.488Z,96449.41
2023-05-11T23:47:50.436Z,96447.22
2023-05-11T23:50:17.294Z,96449.06
2023-05-11T23:52:44.065Z,96437.47
2023-05-11T23:55:11.153Z,96437.09
2023-05-11T23:57:37.926Z,96440.56
